Windsor, Ohio
Current Conditions -  °F | °C
As of 4:53 AM on Tuesday 21 Oct 2014 (Local Time) from KHZY Reporting Station
Haze Haze  
Wind Chill: 51°   Ceiling: 2000
Heat Index: 51°   Visibility: 3mi
Dew Point: 50°   Wind: 0mph
Humidity: 96%   Direction: NA
Pressure: 29.83"   Gusts: NA
Location:  41.53°N, 80.93°W
Report Text: KHZY 210853Z AUTO 00000KT 3SM BR SCT014 OVC020 11/10 A2983 RMK AO2 RAB26E41 SLP102 P0000 60000 T01060100 53001
Loading
Personal Weather Stations






























Interactive Weather Map
Tropical Storm Tracking
New forecast layout! Learn more

10-Day Weather Forecast

Advertisements
Track Severe Weather on mobile